Beauregard Regional Airport
KDRI : now visible

Airfield :











YOU CAN JOIN US ON...

 
LOGIN :

Register | Disclaimer

   EN    FR    IT 

 









Legend :    VFR   Marginal VFR   IFR   Intensive IFR   Very Intensive IFR
Visi :
Ceiling :
>= 8 km
>= 3000ft
5 to 8 km
1000 to 3000 ft
1500m to 5 km
500 to 1000 ft
800 to 1500m
200 to 500 ft
< 800m
< 200 ft
Symbols :   Thunderstorms  Fog  Heavy snow  Heavy precipitations  Wind > 20 kt






- Airport Elevation : 202 ft


KDRI - Beauregard Regional

CURRENT METAR :
  • 220455Z AUTO 00000KT 10SM CLR 04/M03 A3039 RMK AO2 T00431026

EXPIRED METARs :
  • 220435Z AUTO 00000KT 10SM CLR 05/M03 A3040 RMK AO2 T00471027
  • 220415Z AUTO 00000KT 10SM CLR 05/M03 A3041 RMK AO2 T00501028
  • 220355Z AUTO 00000KT 10SM CLR 05/M02 A3041 RMK AO2 T00531025
  • 220335Z AUTO 00000KT 10SM CLR 06/M03 A3042 RMK AO2 T00571026
  • 220315Z AUTO 00000KT 10SM CLR 06/M03 A3043 RMK AO2 T00601029
  • 220255Z AUTO 00000KT 10SM CLR 06/M03 A3043 RMK AO2 T00621028
  • 220235Z AUTO 00000KT 10SM CLR 07/M03 A3043 RMK AO2 T00661029
  • 220215Z AUTO 00000KT 10SM CLR 07/M02 A3042 RMK AO2 T00661025

TAF N/A



MET'MAP, your aeronautical weather chart ! - Copyright ORBIFLY December 2007 - Disclaimer

ORBIFLY MET'MAP TEAM :

Programming & Development : Alexandra Zaïnal
Concept & original design : Baudouin d'Aumeries
Assistance for programming : Marc-Olivier Méhu
Technical & hardware support : Manuel Goepfert

Contact : metmap@orbifly.com




SOURCES & CREDITS :

   NOAA       Earth
Advisory